weather.gov     
National Weather Service

Terminal Aerodrome Forecast
NWS Homepage
This page is being discontinued on March 12, 2014.
The same data is available at this site. Please update your bookmarks.
Thank you, and we apologize for the inconvenience.
Please send an email to SR-SRH.Webmaster@noaa.gov with any concerns.


Current Version
Previous Version:    01  02  03  04  05  06  07  08  09  10  11  12  13  14  15  16  17  18  19  20  21  22  23  24  25  26  27  28  29  
[Printable]
852
FTUS45 KGJT 161734
TAFEGE
TAF
KEGE 161734Z 1618/1718 00000KT P6SM SCT090 SCT150
     FM162000 25009KT P6SM VCSH SCT090 SCT150
     FM170100 20005KT P6SM FEW090 SCT150
     FM170900 00000KT P6SM SKC=




852
FTUS45 KGJT 161734
TAFEGE
TAF
KEGE 161734Z 1618/1718 00000KT P6SM SCT090 SCT150
     FM162000 25009KT P6SM VCSH SCT090 SCT150
     FM170100 20005KT P6SM FEW090 SCT150
     FM170900 00000KT P6SM SKC=


U.S. Dept. of Commerce
NOAA National Weather Service
1325 East West Highway
Silver Spring, MD 20910
E-mail: w-nws.webmaster@noaa.gov
Page last modified: May 16, 2007
NATIONAL WEATHER SERVICE: for Safety, for Work, for Fun - FOR LIFE